Time;durP1;ratioP1;P1;durP2;ratioP2;P2;SDS_P1;SDS_P2;PMS_P1;PMS_P2;Temp;Humidity;BMP_temperature;BMP_pressure;BME280_temperature;BME280_humidity;BME280_pressure;Samples;Min_cycle;Max_cycle;Signal;HPM_P1;HPM_P2
2022/07/07 00:01:45;;;;;;;0.05;0.05;;;;;;;;;;5028626;28;20236;-79
2022/07/07 00:04:12;;;;;;;0.10;0.10;;;;;;;;;;5028842;28;20210;-78
2022/07/07 00:06:38;;;;;;;0.10;0.10;;;;;;;;;;5028027;28;20240;-80
2022/07/07 00:09:06;;;;;;;0.03;0.03;;;;;;;;;;5029202;28;20206;-78
2022/07/07 00:11:33;;;;;;;0.10;0.10;;;;;;;;;;5027282;28;20251;-79
2022/07/07 00:13:59;;;;;;;0.10;0.10;;;;;;;;;;5030127;28;20394;-78
2022/07/07 00:16:25;;;;;;;0.00;0.00;;;;;;;;;;5025736;28;20238;-80
2022/07/07 00:18:52;;;;;;;0.00;0.00;;;;;;;;;;5031045;28;20278;-80
2022/07/07 00:21:18;;;;;;;0.10;0.10;;;;;;;;;;5024893;28;20242;-79
2022/07/07 00:23:45;;;;;;;0.10;0.10;;;;;;;;;;5031673;28;20241;-78
2022/07/07 00:26:13;;;;;;;0.10;0.10;;;;;;;;;;5024062;28;20249;-79
2022/07/07 00:28:39;;;;;;;0.10;0.10;;;;;;;;;;5032451;28;20409;-79
2022/07/07 00:31:06;;;;;;;0.10;0.10;;;;;;;;;;5023407;28;20593;-79
2022/07/07 00:33:32;;;;;;;0.10;0.10;;;;;;;;;;5033031;28;20283;-78
2022/07/07 00:35:59;;;;;;;0.05;0.05;;;;;;;;;;5022064;28;20295;-79
2022/07/07 00:38:25;;;;;;;0.10;0.10;;;;;;;;;;5034120;28;20207;-78
2022/07/07 00:40:52;;;;;;;0.10;0.10;;;;;;;;;;5021433;28;20237;-77
2022/07/07 00:43:20;;;;;;;0.00;0.00;;;;;;;;;;5034673;28;20218;-70
2022/07/07 00:45:46;;;;;;;0.03;0.03;;;;;;;;;;5020478;28;20565;-70
2022/07/07 00:48:13;;;;;;;0.10;0.10;;;;;;;;;;5034869;28;20498;-70
2022/07/07 00:50:39;;;;;;;0.05;0.05;;;;;;;;;;5019355;28;20302;-69
2022/07/07 00:53:06;;;;;;;0.10;0.10;;;;;;;;;;5036230;28;20194;-69
2022/07/07 00:55:32;;;;;;;0.00;0.00;;;;;;;;;;5017584;28;20258;-69
2022/07/07 00:57:58;;;;;;;0.00;0.00;;;;;;;;;;5037197;28;20194;-70
2022/07/07 01:00:26;;;;;;;0.10;0.10;;;;;;;;;;5017824;28;20294;-73
2022/07/07 01:02:53;;;;;;;0.00;0.00;;;;;;;;;;5038529;28;20577;-79
2022/07/07 01:05:19;;;;;;;0.10;0.10;;;;;;;;;;5016363;28;20212;-78
2022/07/07 01:07:46;;;;;;;0.10;0.10;;;;;;;;;;5038840;28;20194;-79
2022/07/07 01:10:12;;;;;;;0.00;0.00;;;;;;;;;;5015730;28;20287;-79
2022/07/07 01:12:40;;;;;;;0.10;0.10;;;;;;;;;;5039376;28;20193;-78
2022/07/07 01:15:08;;;;;;;0.03;0.03;;;;;;;;;;5014626;28;20525;-76
2022/07/07 01:17:36;;;;;;;0.00;0.00;;;;;;;;;;5039528;28;20262;-79
2022/07/07 01:20:04;;;;;;;0.10;0.10;;;;;;;;;;5024583;28;20211;-79
2022/07/07 01:22:32;;;;;;;0.10;0.10;;;;;;;;;;5013237;28;20532;-79
2022/07/07 01:25:00;;;;;;;0.10;0.10;;;;;;;;;;5024484;28;20253;-79
2022/07/07 01:27:26;;;;;;;0.10;0.10;;;;;;;;;;5029897;28;20255;-79
2022/07/07 01:29:54;;;;;;;0.00;0.00;;;;;;;;;;5024256;28;20274;-79
2022/07/07 01:32:20;;;;;;;0.10;0.10;;;;;;;;;;5029530;28;20236;-78
2022/07/07 01:34:48;;;;;;;0.10;0.10;;;;;;;;;;5024652;28;20236;-79
2022/07/07 01:37:14;;;;;;;0.10;0.10;;;;;;;;;;5029696;28;20237;-78
2022/07/07 01:39:41;;;;;;;0.10;0.10;;;;;;;;;;5024711;28;20213;-79
2022/07/07 01:42:09;;;;;;;0.10;0.10;;;;;;;;;;5029557;28;20308;-80
2022/07/07 01:44:37;;;;;;;0.10;0.10;;;;;;;;;;5024267;28;20217;-79
2022/07/07 01:47:03;;;;;;;0.10;0.10;;;;;;;;;;5029013;28;20242;-78
2022/07/07 01:49:32;;;;;;;0.10;0.10;;;;;;;;;;5024230;28;20207;-78
2022/07/07 01:51:59;;;;;;;0.10;0.10;;;;;;;;;;5028401;28;20237;-78
2022/07/07 01:54:26;;;;;;;0.05;0.05;;;;;;;;;;5025040;28;20515;-77
2022/07/07 01:56:52;;;;;;;0.10;0.10;;;;;;;;;;5027875;28;20590;-78
2022/07/07 01:59:20;;;;;;;0.10;0.10;;;;;;;;;;5025568;28;20278;-77
2022/07/07 02:01:46;;;;;;;0.00;0.00;;;;;;;;;;5026611;28;20238;-78
2022/07/07 02:04:12;;;;;;;0.10;0.10;;;;;;;;;;5026520;28;20207;-78
2022/07/07 02:06:39;;;;;;;0.05;0.05;;;;;;;;;;5025628;28;20245;-78
2022/07/07 02:09:05;;;;;;;0.10;0.10;;;;;;;;;;5027027;28;20208;-77
2022/07/07 02:11:32;;;;;;;0.00;0.00;;;;;;;;;;5024835;28;20267;-77
2022/07/07 02:13:58;;;;;;;0.00;0.00;;;;;;;;;;5027643;28;20215;-78
2022/07/07 02:16:26;;;;;;;0.10;0.10;;;;;;;;;;5023690;28;20240;-79
2022/07/07 02:18:54;;;;;;;0.10;0.10;;;;;;;;;;5028437;28;20361;-78
2022/07/07 02:21:21;;;;;;;0.10;0.10;;;;;;;;;;5023255;28;20441;-77
2022/07/07 02:23:48;;;;;;;0.03;0.03;;;;;;;;;;5029123;28;20206;-76
2022/07/07 02:26:14;;;;;;;0.10;0.10;;;;;;;;;;5022202;28;20243;-83
2022/07/07 02:28:41;;;;;;;0.00;0.00;;;;;;;;;;5030051;28;20279;-77
2022/07/07 02:31:08;;;;;;;0.05;0.05;;;;;;;;;;5021094;28;20251;-77
2022/07/07 02:33:36;;;;;;;0.05;0.05;;;;;;;;;;5030789;28;20276;-81
2022/07/07 02:36:03;;;;;;;0.05;0.05;;;;;;;;;;5021264;28;20236;-83
2022/07/07 02:38:29;;;;;;;0.10;0.10;;;;;;;;;;5032402;28;20500;-81
2022/07/07 02:40:56;;;;;;;0.00;0.00;;;;;;;;;;5021178;28;20303;-83
2022/07/07 02:43:23;;;;;;;0.10;0.10;;;;;;;;;;5033211;28;20231;-80
2022/07/07 02:45:51;;;;;;;0.10;0.10;;;;;;;;;;5019408;28;20248;-82
2022/07/07 02:48:18;;;;;;;0.10;0.10;;;;;;;;;;5033305;28;20206;-81
2022/07/07 02:50:45;;;;;;;0.10;0.10;;;;;;;;;;5018625;28;20251;-80
2022/07/07 02:53:12;;;;;;;0.05;0.05;;;;;;;;;;5033809;28;20205;-79
2022/07/07 02:55:39;;;;;;;0.10;0.10;;;;;;;;;;5017673;28;20257;-81
2022/07/07 02:58:06;;;;;;;0.10;0.10;;;;;;;;;;5034529;28;20232;-80
2022/07/07 03:00:33;;;;;;;0.10;0.10;;;;;;;;;;5017036;28;20242;-82
2022/07/07 03:03:00;;;;;;;0.10;0.10;;;;;;;;;;5035515;28;20396;-82
2022/07/07 03:05:27;;;;;;;0.10;0.10;;;;;;;;;;5016170;28;20356;-81
2022/07/07 03:07:55;;;;;;;0.10;0.10;;;;;;;;;;5035487;28;20206;-82
2022/07/07 03:10:22;;;;;;;0.10;0.10;;;;;;;;;;5015784;28;20205;-81
2022/07/07 03:12:48;;;;;;;0.03;0.03;;;;;;;;;;5036485;28;20228;-82
2022/07/07 03:15:15;;;;;;;0.00;0.00;;;;;;;;;;5014209;28;20285;-81
2022/07/07 03:17:41;;;;;;;0.10;0.10;;;;;;;;;;5036939;28;20255;-81
2022/07/07 03:20:09;;;;;;;0.00;0.00;;;;;;;;;;5017465;28;20429;-80
2022/07/07 03:22:35;;;;;;;0.03;0.03;;;;;;;;;;5042161;28;20230;-82
2022/07/07 03:25:03;;;;;;;0.10;0.10;;;;;;;;;;5027479;28;20286;-80
2022/07/07 03:27:30;;;;;;;0.00;0.00;;;;;;;;;;5015648;28;20213;-80
2022/07/07 03:29:56;;;;;;;0.10;0.10;;;;;;;;;;5026723;28;20208;-82
2022/07/07 03:32:22;;;;;;;0.10;0.10;;;;;;;;;;5032073;28;20235;-81
2022/07/07 03:34:49;;;;;;;0.10;0.10;;;;;;;;;;5026670;28;20216;-81
2022/07/07 03:37:15;;;;;;;0.10;0.10;;;;;;;;;;5032201;28;20240;-81
2022/07/07 03:39:42;;;;;;;0.10;0.10;;;;;;;;;;5027052;28;20214;-79
2022/07/07 03:42:10;;;;;;;0.10;0.10;;;;;;;;;;5031859;28;20237;-80
2022/07/07 03:44:36;;;;;;;0.10;0.10;;;;;;;;;;5026917;28;20391;-80
2022/07/07 03:47:03;;;;;;;0.00;0.00;;;;;;;;;;5031419;28;20250;-78
2022/07/07 03:49:30;;;;;;;0.10;0.10;;;;;;;;;;5026672;28;20212;-80
2022/07/07 03:51:56;;;;;;;0.10;0.10;;;;;;;;;;5030454;28;20319;-80
2022/07/07 03:54:23;;;;;;;0.10;0.10;;;;;;;;;;5027660;28;20275;-71
2022/07/07 03:56:49;;;;;;;0.10;0.10;;;;;;;;;;5028787;28;20240;-70
2022/07/07 03:59:17;;;;;;;0.10;0.10;;;;;;;;;;5028237;28;20248;-70
2022/07/07 04:01:44;;;;;;;0.07;0.07;;;;;;;;;;5028180;28;20468;-70
2022/07/07 04:04:11;;;;;;;0.10;0.10;;;;;;;;;;5028291;28;20222;-71
2022/07/07 04:06:37;;;;;;;0.10;0.10;;;;;;;;;;5027660;28;20242;-71
2022/07/07 04:09:04;;;;;;;0.10;0.10;;;;;;;;;;5029639;28;20211;-71
2022/07/07 04:11:30;;;;;;;0.10;0.10;;;;;;;;;;5026499;28;20395;-70
2022/07/07 04:13:57;;;;;;;0.10;0.10;;;;;;;;;;5030284;28;20235;-71
2022/07/07 04:16:24;;;;;;;0.00;0.00;;;;;;;;;;5025550;28;20249;-70
2022/07/07 04:18:51;;;;;;;0.00;0.00;;;;;;;;;;5031132;28;20209;-71
2022/07/07 04:21:17;;;;;;;0.10;0.10;;;;;;;;;;5025174;28;20310;-70
2022/07/07 04:23:43;;;;;;;0.10;0.10;;;;;;;;;;5031969;28;20257;-71
2022/07/07 04:26:10;;;;;;;0.10;0.10;;;;;;;;;;5023915;28;20373;-71
2022/07/07 04:28:36;;;;;;;0.10;0.10;;;;;;;;;;5032663;28;20211;-71
2022/07/07 04:31:02;;;;;;;0.10;0.10;;;;;;;;;;5021737;28;20244;-71
2022/07/07 04:33:30;;;;;;;0.10;0.10;;;;;;;;;;5033605;28;20274;-70
2022/07/07 04:35:56;;;;;;;0.10;0.10;;;;;;;;;;5022298;28;20529;-71
2022/07/07 04:38:23;;;;;;;0.10;0.10;;;;;;;;;;5034028;28;20215;-70
2022/07/07 04:40:49;;;;;;;0.00;0.00;;;;;;;;;;5021172;28;20246;-70
2022/07/07 04:43:15;;;;;;;0.10;0.10;;;;;;;;;;5034769;28;20230;-71
2022/07/07 04:45:42;;;;;;;0.10;0.10;;;;;;;;;;5019823;28;20244;-70
2022/07/07 04:48:08;;;;;;;0.10;0.10;;;;;;;;;;5036026;28;20227;-71
2022/07/07 04:50:36;;;;;;;0.10;0.10;;;;;;;;;;5019213;28;20257;-72
2022/07/07 04:53:02;;;;;;;0.10;0.10;;;;;;;;;;5036859;28;20256;-71
2022/07/07 04:55:28;;;;;;;0.10;0.10;;;;;;;;;;5018311;28;20500;-71
2022/07/07 04:57:55;;;;;;;0.10;0.10;;;;;;;;;;5037298;28;20200;-71
2022/07/07 05:00:21;;;;;;;0.10;0.10;;;;;;;;;;5016934;28;20212;-71
2022/07/07 05:02:48;;;;;;;0.10;0.10;;;;;;;;;;5038462;28;20391;-72
2022/07/07 05:05:14;;;;;;;0.10;0.10;;;;;;;;;;5015932;28;20278;-70
2022/07/07 05:07:42;;;;;;;0.10;0.10;;;;;;;;;;5039324;28;20225;-71
2022/07/07 05:10:08;;;;;;;0.00;0.00;;;;;;;;;;5015171;28;20253;-71
2022/07/07 05:12:35;;;;;;;0.00;0.00;;;;;;;;;;5039983;28;20368;-71
2022/07/07 05:15:01;;;;;;;0.10;0.10;;;;;;;;;;5025066;28;20207;-71
2022/07/07 05:17:27;;;;;;;0.10;0.10;;;;;;;;;;5029790;28;20486;-70
2022/07/07 05:19:54;;;;;;;0.10;0.10;;;;;;;;;;5024876;28;20432;-70
2022/07/07 05:22:20;;;;;;;0.10;0.10;;;;;;;;;;5030049;28;20292;-70
2022/07/07 05:24:48;;;;;;;0.10;0.10;;;;;;;;;;5024459;28;20221;-72
2022/07/07 05:27:14;;;;;;;0.10;0.10;;;;;;;;;;5029683;28;20245;-71
2022/07/07 05:29:41;;;;;;;0.10;0.10;;;;;;;;;;5024834;28;20394;-71
2022/07/07 05:32:07;;;;;;;0.10;0.10;;;;;;;;;;5029608;28;20499;-70
2022/07/07 05:34:34;;;;;;;0.00;0.00;;;;;;;;;;5024198;28;20239;-71
2022/07/07 05:37:00;;;;;;;0.10;0.10;;;;;;;;;;5028865;28;20315;-70
2022/07/07 05:39:28;;;;;;;0.10;0.10;;;;;;;;;;5025040;28;20208;-71
2022/07/07 05:41:56;;;;;;;0.00;0.00;;;;;;;;;;5027817;28;20562;-71
2022/07/07 05:44:22;;;;;;;0.10;0.10;;;;;;;;;;5025192;28;20299;-71
2022/07/07 05:46:48;;;;;;;0.10;0.10;;;;;;;;;;5027138;28;20247;-71
2022/07/07 05:49:15;;;;;;;0.10;0.10;;;;;;;;;;5026005;28;20282;-70
2022/07/07 05:51:41;;;;;;;0.03;0.03;;;;;;;;;;5025863;28;20256;-72
2022/07/07 05:54:08;;;;;;;0.10;0.10;;;;;;;;;;5027159;28;20455;-72
2022/07/07 05:56:34;;;;;;;0.10;0.10;;;;;;;;;;5025174;28;20242;-73
2022/07/07 05:59:02;;;;;;;0.03;0.03;;;;;;;;;;5027861;28;20199;-73
2022/07/07 06:01:28;;;;;;;0.10;0.10;;;;;;;;;;5024003;28;20318;-72
2022/07/07 06:03:54;;;;;;;0.10;0.10;;;;;;;;;;5028925;28;20298;-72
2022/07/07 06:06:21;;;;;;;0.00;0.00;;;;;;;;;;5023035;28;20277;-72
2022/07/07 06:08:47;;;;;;;0.10;0.10;;;;;;;;;;5029218;28;20207;-72
2022/07/07 06:11:13;;;;;;;0.10;0.10;;;;;;;;;;5022534;28;20261;-72
2022/07/07 06:13:40;;;;;;;0.10;0.10;;;;;;;;;;5030146;28;20466;-73
2022/07/07 06:16:08;;;;;;;0.10;0.10;;;;;;;;;;5021147;28;20307;-71
2022/07/07 06:18:34;;;;;;;0.10;0.10;;;;;;;;;;5030681;28;20208;-71
2022/07/07 06:21:01;;;;;;;0.10;0.10;;;;;;;;;;5020237;28;20306;-71
2022/07/07 06:23:27;;;;;;;0.10;0.10;;;;;;;;;;5031611;28;20573;-71
2022/07/07 06:25:53;;;;;;;0.10;0.10;;;;;;;;;;5019691;28;20446;-73
2022/07/07 06:28:20;;;;;;;0.07;0.07;;;;;;;;;;5032800;28;20385;-72
2022/07/07 06:30:46;;;;;;;0.10;0.10;;;;;;;;;;5018697;28;20302;-72
2022/07/07 06:33:14;;;;;;;0.10;0.10;;;;;;;;;;5033591;28;20456;-72
2022/07/07 06:35:40;;;;;;;0.10;0.10;;;;;;;;;;5017887;28;20238;-72
2022/07/07 06:38:06;;;;;;;0.10;0.10;;;;;;;;;;5033933;28;20279;-72
2022/07/07 06:40:33;;;;;;;0.10;0.10;;;;;;;;;;5016582;28;20243;-72
2022/07/07 06:42:59;;;;;;;0.10;0.10;;;;;;;;;;5034770;28;20220;-71
2022/07/07 06:45:26;;;;;;;0.10;0.10;;;;;;;;;;5015994;28;20246;-72
2022/07/07 06:47:52;;;;;;;0.10;0.10;;;;;;;;;;5036080;28;20202;-70
2022/07/07 06:50:20;;;;;;;0.10;0.10;;;;;;;;;;5014881;28;20302;-73
2022/07/07 06:52:47;;;;;;;0.10;0.10;;;;;;;;;;5036396;28;20198;-71
2022/07/07 06:55:13;;;;;;;0.10;0.10;;;;;;;;;;5014381;28;20504;-71
2022/07/07 06:57:39;;;;;;;0.10;0.10;;;;;;;;;;5038282;28;20195;-72
2022/07/07 07:00:07;;;;;;;0.10;0.10;;;;;;;;;;5017503;28;20357;-70
2022/07/07 07:02:33;;;;;;;0.07;0.07;;;;;;;;;;5038689;28;20220;-70
2022/07/07 07:05:00;;;;;;;0.03;0.03;;;;;;;;;;5023785;28;20277;-70
2022/07/07 07:07:30;;;;;;;0.10;0.10;;;;;;;;;;5028824;28;20266;-69
2022/07/07 07:09:56;;;;;;;0.10;0.10;;;;;;;;;;5023390;28;20240;-69
2022/07/07 07:12:23;;;;;;;0.00;0.00;;;;;;;;;;5028763;28;20245;-71
2022/07/07 07:14:49;;;;;;;0.00;0.00;;;;;;;;;;5023353;28;20211;-70
2022/07/07 07:17:16;;;;;;;0.10;0.10;;;;;;;;;;5028883;28;20264;-69
2022/07/07 07:19:42;;;;;;;0.00;0.00;;;;;;;;;;5023643;28;20566;-70
2022/07/07 07:22:09;;;;;;;0.10;0.10;;;;;;;;;;5028510;28;20287;-70
2022/07/07 07:24:37;;;;;;;0.10;0.10;;;;;;;;;;5023498;28;20231;-72
2022/07/07 07:27:04;;;;;;;0.10;0.10;;;;;;;;;;5028213;28;20334;-73
2022/07/07 07:29:30;;;;;;;0.00;0.00;;;;;;;;;;5023310;28;20207;-71
2022/07/07 07:31:56;;;;;;;0.10;0.10;;;;;;;;;;5027202;28;20473;-72
2022/07/07 07:34:23;;;;;;;0.10;0.10;;;;;;;;;;5024232;28;20210;-72
2022/07/07 07:36:50;;;;;;;0.10;0.10;;;;;;;;;;5025503;28;20300;-71
2022/07/07 07:39:16;;;;;;;0.10;0.10;;;;;;;;;;5025681;28;20257;-71
2022/07/07 07:41:44;;;;;;;0.10;0.10;;;;;;;;;;5025170;28;20254;-72
2022/07/07 07:44:11;;;;;;;0.10;0.10;;;;;;;;;;5026116;28;20331;-72
2022/07/07 07:46:37;;;;;;;0.07;0.07;;;;;;;;;;5024191;28;20241;-71
2022/07/07 07:49:06;;;;;;;0.10;0.10;;;;;;;;;;5026541;28;20226;-71
2022/07/07 07:51:32;;;;;;;0.10;0.10;;;;;;;;;;5023373;28;20250;-72
2022/07/07 07:53:59;;;;;;;0.10;0.10;;;;;;;;;;5027317;28;20275;-73
2022/07/07 07:56:25;;;;;;;0.10;0.10;;;;;;;;;;5021878;28;20272;-71
2022/07/07 07:58:53;;;;;;;0.10;0.10;;;;;;;;;;5028930;28;20275;-72
2022/07/07 08:01:20;;;;;;;0.00;0.00;;;;;;;;;;5021091;28;20416;-71
2022/07/07 08:03:46;;;;;;;0.00;0.00;;;;;;;;;;5029700;28;20241;-71
2022/07/07 08:06:13;;;;;;;0.10;0.10;;;;;;;;;;5023702;28;20449;-71
2022/07/07 08:08:39;;;;;;;0.10;0.10;;;;;;;;;;5034243;28;20214;-72
2022/07/07 08:11:06;;;;;;;0.10;0.10;;;;;;;;;;5023763;28;20568;-72
2022/07/07 08:13:32;;;;;;;0.10;0.10;;;;;;;;;;5033978;28;20202;-71
2022/07/07 08:16:00;;;;;;;0.10;0.10;;;;;;;;;;5022492;28;20652;-72
2022/07/07 08:18:28;;;;;;;0.10;0.10;;;;;;;;;;5034892;28;20447;-71
2022/07/07 08:20:55;;;;;;;0.03;0.03;;;;;;;;;;5021030;28;20253;-73
2022/07/07 08:23:21;;;;;;;0.10;0.10;;;;;;;;;;5036435;28;20284;-71
2022/07/07 08:25:48;;;;;;;0.10;0.10;;;;;;;;;;5021539;28;20289;-71
2022/07/07 08:28:14;;;;;;;0.10;0.10;;;;;;;;;;5035941;28;20325;-71
2022/07/07 08:30:41;;;;;;;0.10;0.10;;;;;;;;;;5020231;28;20284;-72
2022/07/07 08:33:08;;;;;;;0.10;0.10;;;;;;;;;;5037227;28;20205;-71
2022/07/07 08:35:35;;;;;;;0.10;0.10;;;;;;;;;;5019727;28;20277;-71
2022/07/07 08:38:01;;;;;;;0.10;0.10;;;;;;;;;;5038046;28;20194;-72
2022/07/07 08:40:28;;;;;;;0.03;0.03;;;;;;;;;;5018711;28;20297;-71
2022/07/07 08:42:54;;;;;;;0.10;0.10;;;;;;;;;;5038267;28;20205;-71
2022/07/07 08:45:21;;;;;;;0.10;0.10;;;;;;;;;;5017273;28;20241;-71
2022/07/07 08:47:48;;;;;;;0.10;0.10;;;;;;;;;;5039281;28;20186;-69
2022/07/07 08:50:17;;;;;;;0.00;0.00;;;;;;;;;;5016790;28;20207;-71
2022/07/07 08:52:45;;;;;;;0.10;0.10;;;;;;;;;;5039384;28;20205;-70
2022/07/07 08:55:14;;;;;;;0.10;0.10;;;;;;;;;;5016133;28;20217;-71
2022/07/07 08:57:41;;;;;;;0.10;0.10;;;;;;;;;;5039535;28;20193;-70
2022/07/07 09:00:08;;;;;;;0.10;0.10;;;;;;;;;;5015515;28;20208;-71
2022/07/07 09:02:35;;;;;;;0.10;0.10;;;;;;;;;;5040551;28;20454;-71
2022/07/07 09:05:01;;;;;;;0.00;0.00;;;;;;;;;;5025291;28;20229;-71
2022/07/07 09:07:43;;;;;;;0.10;0.10;;;;;;;;;;5030678;28;20569;-71
2022/07/07 09:10:10;;;;;;;0.10;0.10;;;;;;;;;;5015767;28;20208;-72
2022/07/07 09:12:37;;;;;;;0.10;0.10;;;;;;;;;;5040005;28;20200;-71
2022/07/07 09:15:04;;;;;;;0.10;0.10;;;;;;;;;;5025108;28;20202;-71
2022/07/07 09:17:32;;;;;;;0.10;0.10;;;;;;;;;;5029560;28;20265;-72
2022/07/07 09:19:59;;;;;;;0.00;0.00;;;;;;;;;;5025335;28;20334;-71
2022/07/07 09:22:41;;;;;;;0.03;0.03;;;;;;;;;;5030265;28;20343;-71
2022/07/07 09:25:08;;;;;;;0.00;0.00;;;;;;;;;;5014735;28;20269;-70
2022/07/07 09:27:49;;;;;;;0.00;0.00;;;;;;;;;;5039988;28;20204;-71
2022/07/07 09:30:25;;;;;;;0.10;0.10;;;;;;;;;;5022033;28;20205;-72
2022/07/07 09:32:52;;;;;;;0.10;0.10;;;;;;;;;;5025172;28;20264;-71
2022/07/07 09:38:13;;;;;;;0.10;0.10;;;;;;;;;;5035596;28;20504;-70
2022/07/07 09:38:13;;;;;;;0.10;0.10;;;;;;;;;;5016152;28;20212;-71
2022/07/07 09:40:49;;;;;;;0.10;0.10;;;;;;;;;;5019345;28;20352;-71
2022/07/07 09:43:17;;;;;;;0.00;0.00;;;;;;;;;;5034640;28;20208;-72
2022/07/07 09:45:43;;;;;;;0.00;0.00;;;;;;;;;;5019480;28;20243;-71
2022/07/07 09:48:12;;;;;;;0.10;0.10;;;;;;;;;;5035252;28;20210;-73
2022/07/07 09:50:38;;;;;;;0.00;0.00;;;;;;;;;;5018477;28;20245;-74
2022/07/07 09:53:07;;;;;;;0.10;0.10;;;;;;;;;;5035704;28;20205;-73
2022/07/07 09:55:33;;;;;;;0.10;0.10;;;;;;;;;;5017822;28;20250;-73
2022/07/07 09:58:00;;;;;;;0.00;0.00;;;;;;;;;;5036158;28;20224;-73
2022/07/07 10:00:28;;;;;;;0.10;0.10;;;;;;;;;;5017255;28;20471;-73
2022/07/07 10:02:55;;;;;;;0.10;0.10;;;;;;;;;;5036655;28;20215;-71
2022/07/07 10:05:23;;;;;;;0.10;0.10;;;;;;;;;;5016186;28;20233;-72
2022/07/07 10:07:50;;;;;;;0.00;0.00;;;;;;;;;;5037171;28;20260;-72
2022/07/07 10:10:19;;;;;;;0.00;0.00;;;;;;;;;;5015643;28;20209;-72
2022/07/07 10:12:46;;;;;;;0.00;0.00;;;;;;;;;;5038035;28;20201;-72
2022/07/07 10:15:13;;;;;;;0.10;0.10;;;;;;;;;;5014902;28;20203;-71
2022/07/07 10:17:41;;;;;;;0.10;0.10;;;;;;;;;;5038041;28;20247;-71
2022/07/07 10:20:08;;;;;;;0.10;0.10;;;;;;;;;;5014441;28;20372;-71
2022/07/07 10:22:35;;;;;;;0.08;0.08;;;;;;;;;;5039230;28;20399;-70
2022/07/07 10:25:02;;;;;;;0.10;0.10;;;;;;;;;;5023766;28;20279;-70
2022/07/07 10:27:30;;;;;;;0.10;0.10;;;;;;;;;;5029269;28;20428;-71
2022/07/07 10:29:57;;;;;;;0.10;0.10;;;;;;;;;;5023887;28;20429;-72
2022/07/07 10:32:34;;;;;;;0.10;0.10;;;;;;;;;;5029202;28;20421;-71
2022/07/07 10:35:08;;;;;;;0.07;0.07;;;;;;;;;;5024049;28;20191;-72
2022/07/07 10:37:41;;;;;;;0.07;0.07;;;;;;;;;;5012733;28;20217;-73
2022/07/07 10:40:11;;;;;;;0.00;0.00;;;;;;;;;;5014015;28;20239;-72
2022/07/07 10:42:57;;;;;;;0.08;0.08;;;;;;;;;;5038607;28;20197;-71
2022/07/07 10:45:26;;;;;;;0.10;0.10;;;;;;;;;;5015742;28;20251;-72
2022/07/07 10:47:52;;;;;;;0.10;0.10;;;;;;;;;;5036298;28;20510;-70
2022/07/07 10:50:25;;;;;;;0.00;0.00;;;;;;;;;;5015232;28;20220;-72
2022/07/07 10:52:51;;;;;;;0.10;0.10;;;;;;;;;;5036720;28;20224;-72
2022/07/07 10:55:18;;;;;;;0.00;0.00;;;;;;;;;;5015385;28;20214;-72
2022/07/07 10:57:45;;;;;;;0.10;0.10;;;;;;;;;;5037395;28;20239;-71
2022/07/07 11:00:19;;;;;;;0.10;0.10;;;;;;;;;;5014044;28;20217;-72
2022/07/07 11:02:47;;;;;;;0.10;0.10;;;;;;;;;;5037158;28;20221;-71
2022/07/07 11:05:31;;;;;;;0.00;0.00;;;;;;;;;;5014204;28;20241;-71
2022/07/07 11:08:07;;;;;;;0.00;0.00;;;;;;;;;;5035574;28;20203;-70
2022/07/07 11:10:45;;;;;;;0.00;0.00;;;;;;;;;;5017187;28;20247;-70
2022/07/07 11:13:14;;;;;;;0.00;0.00;;;;;;;;;;5033931;28;20236;-71
2022/07/07 11:15:43;;;;;;;0.00;0.00;;;;;;;;;;5017363;28;20243;-71
2022/07/07 11:18:13;;;;;;;0.00;0.00;;;;;;;;;;5033983;28;20262;-71
2022/07/07 11:20:51;;;;;;;0.10;0.10;;;;;;;;;;5017327;28;20605;-71
2022/07/07 11:23:19;;;;;;;0.10;0.10;;;;;;;;;;5032718;28;20224;-71
2022/07/07 11:25:47;;;;;;;0.10;0.10;;;;;;;;;;5017874;28;20439;-71
2022/07/07 11:28:14;;;;;;;0.10;0.10;;;;;;;;;;5033519;28;20208;-71
2022/07/07 11:30:41;;;;;;;0.10;0.10;;;;;;;;;;5017561;28;20244;-72
2022/07/07 11:33:08;;;;;;;0.00;0.00;;;;;;;;;;5034013;28;20201;-72
2022/07/07 11:35:36;;;;;;;0.10;0.10;;;;;;;;;;5016590;28;20247;-71
2022/07/07 11:38:02;;;;;;;0.10;0.10;;;;;;;;;;5034779;28;20228;-72
2022/07/07 11:40:31;;;;;;;0.10;0.10;;;;;;;;;;5018809;28;20236;-71
2022/07/07 11:43:00;;;;;;;0.10;0.10;;;;;;;;;;5039120;28;20202;-70
2022/07/07 11:45:27;;;;;;;0.05;0.05;;;;;;;;;;5019105;28;20230;-70
2022/07/07 11:47:56;;;;;;;0.05;0.05;;;;;;;;;;5039584;28;20194;-70
2022/07/07 11:50:23;;;;;;;0.10;0.10;;;;;;;;;;5017536;28;20209;-71
2022/07/07 11:52:50;;;;;;;0.00;0.00;;;;;;;;;;5041164;28;20228;-70
2022/07/07 11:55:18;;;;;;;0.10;0.10;;;;;;;;;;5017672;28;20208;-70
2022/07/07 11:57:49;;;;;;;0.10;0.10;;;;;;;;;;5040744;28;20198;-70
2022/07/07 12:00:17;;;;;;;0.10;0.10;;;;;;;;;;5017199;28;20260;-70
2022/07/07 12:02:44;;;;;;;0.00;0.00;;;;;;;;;;5041373;28;20189;-69
2022/07/07 12:05:11;;;;;;;0.03;0.03;;;;;;;;;;5016845;28;20241;-69
2022/07/07 12:07:37;;;;;;;0.08;0.08;;;;;;;;;;5041272;28;20258;-69
2022/07/07 12:10:04;;;;;;;0.03;0.03;;;;;;;;;;5026640;28;20266;-69
2022/07/07 12:12:31;;;;;;;0.10;0.10;;;;;;;;;;5031774;28;20292;-69
2022/07/07 12:14:59;;;;;;;0.10;0.10;;;;;;;;;;5026394;28;20269;-70
2022/07/07 12:17:35;;;;;;;0.10;0.10;;;;;;;;;;5031381;28;20286;-71
2022/07/07 12:20:02;;;;;;;0.10;0.10;;;;;;;;;;5026326;28;20211;-70
2022/07/07 12:22:32;;;;;;;0.10;0.10;;;;;;;;;;5031577;28;20248;-69
2022/07/07 12:25:00;;;;;;;0.00;0.00;;;;;;;;;;5026140;28;20308;-69
2022/07/07 12:27:26;;;;;;;0.05;0.05;;;;;;;;;;5031572;28;20246;-70
2022/07/07 12:30:01;;;;;;;0.05;0.05;;;;;;;;;;5026223;28;20399;-71
2022/07/07 12:32:32;;;;;;;0.10;0.10;;;;;;;;;;5031533;28;20249;-72
2022/07/07 12:35:01;;;;;;;0.10;0.10;;;;;;;;;;5026224;28;20190;-70
2022/07/07 12:37:40;;;;;;;0.10;0.10;;;;;;;;;;5030653;28;20253;-70
2022/07/07 12:40:10;;;;;;;0.10;0.10;;;;;;;;;;5019399;28;20237;-69
2022/07/07 12:42:36;;;;;;;0.10;0.10;;;;;;;;;;5040472;28;20219;-71
2022/07/07 12:45:10;;;;;;;0.08;0.08;;;;;;;;;;5025961;28;20398;-70
2022/07/07 12:47:44;;;;;;;0.00;0.00;;;;;;;;;;5014366;28;20217;-69
2022/07/07 12:50:10;;;;;;;0.00;0.00;;;;;;;;;;5015456;28;20215;-70
2022/07/07 12:52:37;;;;;;;0.10;0.10;;;;;;;;;;5039258;28;20195;-69
2022/07/07 12:55:08;;;;;;;0.10;0.10;;;;;;;;;;5025365;28;20377;-70
2022/07/07 12:57:34;;;;;;;0.08;0.08;;;;;;;;;;5013974;28;20328;-69
2022/07/07 13:00:01;;;;;;;0.10;0.10;;;;;;;;;;5025067;28;20205;-71
2022/07/07 13:02:29;;;;;;;0.10;0.10;;;;;;;;;;5030413;28;20248;-70
2022/07/07 13:04:55;;;;;;;0.00;0.00;;;;;;;;;;5025259;28;20236;-69
2022/07/07 13:07:23;;;;;;;0.03;0.03;;;;;;;;;;5029836;28;20250;-71
2022/07/07 13:09:49;;;;;;;0.10;0.10;;;;;;;;;;5025083;28;20509;-70
2022/07/07 13:12:17;;;;;;;0.10;0.10;;;;;;;;;;5030100;28;20265;-71
2022/07/07 13:14:44;;;;;;;0.10;0.10;;;;;;;;;;5024842;28;20214;-72
2022/07/07 13:17:10;;;;;;;0.00;0.00;;;;;;;;;;5029819;28;20261;-71
2022/07/07 13:19:39;;;;;;;0.10;0.10;;;;;;;;;;5024561;28;20279;-70
2022/07/07 13:22:06;;;;;;;0.10;0.10;;;;;;;;;;5029860;28;20435;-70
2022/07/07 13:24:33;;;;;;;0.10;0.10;;;;;;;;;;5024521;28;20279;-71
2022/07/07 13:26:59;;;;;;;0.10;0.10;;;;;;;;;;5027689;28;20257;-71
2022/07/07 13:29:25;;;;;;;0.00;0.00;;;;;;;;;;5027011;28;20214;-70
2022/07/07 13:31:52;;;;;;;0.05;0.05;;;;;;;;;;5027875;28;20280;-71
2022/07/07 13:34:19;;;;;;;0.00;0.00;;;;;;;;;;5026062;28;20207;-70
2022/07/07 13:36:47;;;;;;;0.00;0.00;;;;;;;;;;5027182;28;20257;-71
2022/07/07 13:39:15;;;;;;;0.10;0.10;;;;;;;;;;5026924;28;20417;-70
2022/07/07 13:41:41;;;;;;;0.10;0.10;;;;;;;;;;5025849;28;20245;-71
2022/07/07 13:44:08;;;;;;;0.10;0.10;;;;;;;;;;5028111;28;20207;-71
2022/07/07 13:46:34;;;;;;;0.10;0.10;;;;;;;;;;5025426;28;20495;-71
2022/07/07 13:49:01;;;;;;;0.08;0.08;;;;;;;;;;5022962;28;20202;-71
2022/07/07 13:51:27;;;;;;;0.10;0.10;;;;;;;;;;5024424;28;20398;-70
2022/07/07 13:53:55;;;;;;;0.00;0.00;;;;;;;;;;5028889;28;20427;-69
2022/07/07 13:56:22;;;;;;;0.10;0.10;;;;;;;;;;5023653;28;20242;-71
2022/07/07 13:58:48;;;;;;;0.10;0.10;;;;;;;;;;5029699;28;20210;-71
2022/07/07 14:01:15;;;;;;;0.00;0.00;;;;;;;;;;5022370;28;20620;-71
2022/07/07 14:03:41;;;;;;;0.08;0.08;;;;;;;;;;5029936;28;20235;-71
2022/07/07 14:06:08;;;;;;;0.00;0.00;;;;;;;;;;5021786;28;20267;-70
2022/07/07 14:08:34;;;;;;;0.00;0.00;;;;;;;;;;5030888;28;20221;-71
2022/07/07 14:11:02;;;;;;;0.00;0.00;;;;;;;;;;5020901;28;20313;-70
2022/07/07 14:13:28;;;;;;;0.10;0.10;;;;;;;;;;5031742;28;20272;-70
2022/07/07 14:15:55;;;;;;;0.10;0.10;;;;;;;;;;5019750;28;20243;-69
2022/07/07 14:18:21;;;;;;;0.00;0.00;;;;;;;;;;5032305;28;20303;-70
2022/07/07 14:20:48;;;;;;;0.03;0.03;;;;;;;;;;5019070;28;20543;-73
2022/07/07 14:23:14;;;;;;;0.10;0.10;;;;;;;;;;5033153;28;20241;-70
2022/07/07 14:25:41;;;;;;;0.00;0.00;;;;;;;;;;5017915;28;20440;-71
2022/07/07 14:28:09;;;;;;;0.00;0.00;;;;;;;;;;5034498;28;20197;-70
2022/07/07 14:30:35;;;;;;;0.00;0.00;;;;;;;;;;5017126;28;20288;-70
2022/07/07 14:33:02;;;;;;;0.00;0.00;;;;;;;;;;5034767;28;20203;-70
2022/07/07 14:35:28;;;;;;;0.00;0.00;;;;;;;;;;5016034;28;20251;-69
2022/07/07 14:37:55;;;;;;;0.10;0.10;;;;;;;;;;5035589;28;20225;-70
2022/07/07 14:40:21;;;;;;;0.00;0.00;;;;;;;;;;5015430;28;20456;-70
2022/07/07 14:42:47;;;;;;;0.00;0.00;;;;;;;;;;5036090;28;20204;-70
2022/07/07 14:45:15;;;;;;;0.00;0.00;;;;;;;;;;5014249;28;20414;-71